PWSweather.com
Personal Weather Stations
Station Observations

YeovilGB

Lat: 50.949, Lon: -2.627

Elevation: 70

Station Type: Vantage Pro

http://www.yeovil-weather.me.uk/

High Low Average
Temperature 41.3°F5.2°C 33.0°F0.6°C 36.3°F2.4°C
Dew Point 34.9°F1.6°C 28.2°F-2.1°C 31.3°F-0.4°C
Winds 10.4 mph 16.7 kmh Calm Calm 4.0 mph ESE6.4 kmh ESE
Wind Gusts 19.6 mph31.5 kmh 1.2 mph1.9 kmh 9.0 mph14.5 kmh
Humidity 90% 74% 82%
Pressure 30.29 in1025.7 mb 30.15 in1021.0 mb -
Precipitation 0.00 in0.0 mm - -
Hour Temp Dew Point Humidity Winds Wind Gusts Pressure Precip Precip Rate Daily Precip Total
12:00 AM 36.0°F2.2°C 32.8°F0.4°C 88% 2.3 mph N3.7 kmh N 5.8 mph9.3 kmh 30.15 in1021.0 mb - 0.00 in0.0 mm 0.00 in0.0 mm
12:10 AM 35.9°F2.2°C 32.7°F0.4°C 88% 2.3 mph N3.7 kmh N 8.1 mph13.0 kmh 30.15 in1021.0 mb - 0.00 in0.0 mm 0.00 in0.0 mm
12:20 AM 36.0°F2.2°C 32.8°F0.4°C 88% 1.2 mph N1.9 kmh N 6.9 mph11.1 kmh 30.15 in1021.0 mb - 0.00 in0.0 mm 0.00 in0.0 mm
12:30 AM 35.9°F2.2°C 32.7°F0.4°C 88% 2.3 mph N3.7 kmh N 8.1 mph13.0 kmh 30.16 in1021.3 mb - 0.00 in0.0 mm 0.00 in0.0 mm
12:40 AM 35.9°F2.2°C 32.7°F0.4°C 88% Calm Calm 4.6 mph7.4 kmh 30.16 in1021.3 mb - 0.00 in0.0 mm 0.00 in0.0 mm
12:50 AM 35.8°F2.1°C 32.3°F0.2°C 87% 1.2 mph N1.9 kmh N 3.5 mph5.6 kmh 30.16 in1021.3 mb - 0.00 in0.0 mm 0.00 in0.0 mm
01:00 AM 35.6°F2.0°C 32.1°F0.1°C 87% 2.3 mph N3.7 kmh N 4.6 mph7.4 kmh 30.16 in1021.3 mb - 0.00 in0.0 mm 0.00 in0.0 mm
01:10 AM 35.5°F1.9°C 32.0°F0.0°C 87% 1.2 mph N1.9 kmh N 3.5 mph5.6 kmh 30.17 in1021.7 mb - 0.00 in0.0 mm 0.00 in0.0 mm
01:20 AM 35.3°F1.8°C 31.8°F-0.1°C 87% 2.3 mph N3.7 kmh N 4.6 mph7.4 kmh 30.17 in1021.7 mb - 0.00 in0.0 mm 0.00 in0.0 mm
01:30 AM 35.1°F1.7°C 31.9°F-0.1°C 88% 3.5 mph N5.6 kmh N 6.9 mph11.1 kmh 30.17 in1021.7 mb - 0.00 in0.0 mm 0.00 in0.0 mm
01:40 AM 35.0°F1.7°C 31.8°F-0.1°C 88% 2.3 mph N3.7 kmh N 6.9 mph11.1 kmh 30.18 in1022.0 mb - 0.00 in0.0 mm 0.00 in0.0 mm
01:50 AM 34.9°F1.6°C 31.7°F-0.2°C 88% 2.3 mph N3.7 kmh N 3.5 mph5.6 kmh 30.18 in1022.0 mb - 0.00 in0.0 mm 0.00 in0.0 mm
02:00 AM 34.9°F1.6°C 31.7°F-0.2°C 88% 2.3 mph N3.7 kmh N 5.8 mph9.3 kmh 30.18 in1022.0 mb - 0.00 in0.0 mm 0.00 in0.0 mm
02:10 AM 34.9°F1.6°C 31.7°F-0.2°C 88% 4.6 mph N7.4 kmh N 6.9 mph11.1 kmh 30.18 in1022.0 mb - 0.00 in0.0 mm 0.00 in0.0 mm
02:20 AM 35.0°F1.7°C 31.5°F-0.3°C 87% 3.5 mph N5.6 kmh N 11.5 mph18.5 kmh 30.18 in1022.0 mb - 0.00 in0.0 mm 0.00 in0.0 mm
02:30 AM 34.8°F1.6°C 31.3°F-0.4°C 87% 2.3 mph N3.7 kmh N 6.9 mph11.1 kmh 30.19 in1022.4 mb - 0.00 in0.0 mm 0.00 in0.0 mm
02:40 AM 34.7°F1.5°C 31.5°F-0.3°C 88% 3.5 mph N5.6 kmh N 6.9 mph11.1 kmh 30.19 in1022.4 mb - 0.00 in0.0 mm 0.00 in0.0 mm
02:50 AM 34.6°F1.4°C 31.4°F-0.3°C 88% 1.2 mph NNW1.9 kmh NNW 4.6 mph7.4 kmh 30.19 in1022.4 mb - 0.00 in0.0 mm 0.00 in0.0 mm
03:00 AM 34.6°F1.4°C 31.4°F-0.3°C 88% 2.3 mph NNW3.7 kmh NNW 8.1 mph13.0 kmh 30.20 in1022.7 mb - 0.00 in0.0 mm 0.00 in0.0 mm
03:10 AM 34.5°F1.4°C 31.3°F-0.4°C 88% 2.3 mph N3.7 kmh N 5.8 mph9.3 kmh 30.20 in1022.7 mb - 0.00 in0.0 mm 0.00 in0.0 mm
03:20 AM 34.4°F1.3°C 31.2°F-0.4°C 88% 3.5 mph N5.6 kmh N 11.5 mph18.5 kmh 30.20 in1022.7 mb - 0.00 in0.0 mm 0.00 in0.0 mm
03:30 AM 34.4°F1.3°C 31.2°F-0.4°C 88% 2.3 mph N3.7 kmh N 6.9 mph11.1 kmh 30.20 in1022.7 mb - 0.00 in0.0 mm 0.00 in0.0 mm
03:40 AM 34.3°F1.3°C 31.1°F-0.5°C 88% 2.3 mph N3.7 kmh N 4.6 mph7.4 kmh 30.20 in1022.7 mb - 0.00 in0.0 mm 0.00 in0.0 mm
03:50 AM 34.2°F1.2°C 31.0°F-0.6°C 88% 2.3 mph N3.7 kmh N 8.1 mph13.0 kmh 30.21 in1023.0 mb - 0.00 in0.0 mm 0.00 in0.0 mm
04:00 AM 34.1°F1.2°C 30.9°F-0.6°C 88% 3.5 mph N5.6 kmh N 6.9 mph11.1 kmh 30.21 in1023.0 mb - 0.00 in0.0 mm 0.00 in0.0 mm
04:10 AM 34.2°F1.2°C 31.0°F-0.6°C 88% 4.6 mph N7.4 kmh N 6.9 mph11.1 kmh 30.21 in1023.0 mb - 0.00 in0.0 mm 0.00 in0.0 mm
04:20 AM 34.1°F1.2°C 30.9°F-0.6°C 88% 3.5 mph N5.6 kmh N 6.9 mph11.1 kmh 30.21 in1023.0 mb - 0.00 in0.0 mm 0.00 in0.0 mm
04:30 AM 33.9°F1.1°C 30.7°F-0.7°C 88% 4.6 mph N7.4 kmh N 9.2 mph14.8 kmh 30.21 in1023.0 mb - 0.00 in0.0 mm 0.00 in0.0 mm
04:40 AM 33.8°F1.0°C 30.6°F-0.8°C 88% 4.6 mph N7.4 kmh N 9.2 mph14.8 kmh 30.21 in1023.0 mb - 0.00 in0.0 mm 0.00 in0.0 mm
04:50 AM 33.8°F1.0°C 30.9°F-0.6°C 89% 3.5 mph N5.6 kmh N 6.9 mph11.1 kmh 30.21 in1023.0 mb - 0.00 in0.0 mm 0.00 in0.0 mm
05:00 AM 33.8°F1.0°C 30.9°F-0.6°C 89% 2.3 mph N3.7 kmh N 5.8 mph9.3 kmh 30.21 in1023.0 mb - 0.00 in0.0 mm 0.00 in0.0 mm
05:10 AM 33.8°F1.0°C 30.9°F-0.6°C 89% 5.8 mph N9.3 kmh N 11.5 mph18.5 kmh 30.21 in1023.0 mb - 0.00 in0.0 mm 0.00 in0.0 mm
05:20 AM 33.8°F1.0°C 30.9°F-0.6°C 89% 3.5 mph N5.6 kmh N 8.1 mph13.0 kmh 30.22 in1023.4 mb - 0.00 in0.0 mm 0.00 in0.0 mm
05:30 AM 33.8°F1.0°C 30.6°F-0.8°C 88% 3.5 mph N5.6 kmh N 11.5 mph18.5 kmh 30.22 in1023.4 mb - 0.00 in0.0 mm 0.00 in0.0 mm
05:40 AM 33.9°F1.1°C 30.7°F-0.7°C 88% 4.6 mph N7.4 kmh N 8.1 mph13.0 kmh 30.22 in1023.4 mb - 0.00 in0.0 mm 0.00 in0.0 mm
05:50 AM 33.9°F1.1°C 30.7°F-0.7°C 88% 3.5 mph N5.6 kmh N 9.2 mph14.8 kmh 30.22 in1023.4 mb - 0.00 in0.0 mm 0.00 in0.0 mm
06:00 AM 33.8°F1.0°C 30.6°F-0.8°C 88% 3.5 mph N5.6 kmh N 6.9 mph11.1 kmh 30.23 in1023.7 mb - 0.00 in0.0 mm 0.00 in0.0 mm
06:10 AM 33.8°F1.0°C 30.6°F-0.8°C 88% 4.6 mph N7.4 kmh N 11.5 mph18.5 kmh 30.23 in1023.7 mb - 0.00 in0.0 mm 0.00 in0.0 mm
06:20 AM 33.8°F1.0°C 30.3°F-0.9°C 87% 3.5 mph N5.6 kmh N 9.2 mph14.8 kmh 30.24 in1024.0 mb - 0.00 in0.0 mm 0.00 in0.0 mm
06:30 AM 33.7°F0.9°C 30.2°F-1.0°C 87% 4.6 mph N7.4 kmh N 11.5 mph18.5 kmh 30.24 in1024.0 mb - 0.00 in0.0 mm 0.00 in0.0 mm
06:40 AM 33.7°F0.9°C 30.2°F-1.0°C 87% 3.5 mph N5.6 kmh N 6.9 mph11.1 kmh 30.24 in1024.0 mb - 0.00 in0.0 mm 0.00 in0.0 mm
06:50 AM 33.7°F0.9°C 30.2°F-1.0°C 87% 3.5 mph N5.6 kmh N 6.9 mph11.1 kmh 30.25 in1024.4 mb - 0.00 in0.0 mm 0.00 in0.0 mm
07:00 AM 33.7°F0.9°C 30.2°F-1.0°C 87% 2.3 mph N3.7 kmh N 6.9 mph11.1 kmh 30.25 in1024.4 mb - 0.00 in0.0 mm 0.00 in0.0 mm
07:10 AM 33.6°F0.9°C 30.1°F-1.1°C 87% 2.3 mph N3.7 kmh N 6.9 mph11.1 kmh 30.25 in1024.4 mb - 0.00 in0.0 mm 0.00 in0.0 mm
07:20 AM 33.5°F0.8°C 30.4°F-0.9°C 88% 3.5 mph N5.6 kmh N 10.4 mph16.7 kmh 30.25 in1024.4 mb - 0.00 in0.0 mm 0.00 in0.0 mm
07:30 AM 33.5°F0.8°C 30.3°F-0.9°C 88% 3.5 mph N5.6 kmh N 10.4 mph16.7 kmh 30.26 in1024.7 mb - 0.00 in0.0 mm 0.00 in0.0 mm
07:40 AM 33.5°F0.8°C 30.3°F-0.9°C 88% 2.3 mph N3.7 kmh N 9.2 mph14.8 kmh 30.26 in1024.7 mb - 0.00 in0.0 mm 0.00 in0.0 mm
07:50 AM 33.4°F0.8°C 30.2°F-1.0°C 88% 2.3 mph N3.7 kmh N 8.1 mph13.0 kmh 30.26 in1024.7 mb - 0.00 in0.0 mm 0.00 in0.0 mm
08:00 AM 33.3°F0.7°C 30.1°F-1.1°C 88% 4.6 mph N7.4 kmh N 6.9 mph11.1 kmh 30.26 in1024.7 mb - 0.00 in0.0 mm 0.00 in0.0 mm
08:10 AM 33.1°F0.6°C 30.0°F-1.1°C 88% 3.5 mph N5.6 kmh N 8.1 mph13.0 kmh 30.26 in1024.7 mb - 0.00 in0.0 mm 0.00 in0.0 mm
08:20 AM 33.0°F0.6°C 29.8°F-1.2°C 88% 3.5 mph NNW5.6 kmh NNW 5.8 mph9.3 kmh 30.26 in1024.7 mb - 0.00 in0.0 mm 0.00 in0.0 mm
08:30 AM 33.0°F0.6°C 30.1°F-1.1°C 89% 4.6 mph N7.4 kmh N 6.9 mph11.1 kmh 30.26 in1024.7 mb - 0.00 in0.0 mm 0.00 in0.0 mm
08:40 AM 33.0°F0.6°C 30.1°F-1.1°C 89% 3.5 mph NNW5.6 kmh NNW 6.9 mph11.1 kmh 30.27 in1025.1 mb - 0.00 in0.0 mm 0.00 in0.0 mm
08:50 AM 33.0°F0.6°C 30.1°F-1.1°C 89% 3.5 mph NNW5.6 kmh NNW 6.9 mph11.1 kmh 30.27 in1025.1 mb - 0.00 in0.0 mm 0.00 in0.0 mm
09:00 AM 33.1°F0.6°C 30.5°F-0.8°C 90% 4.6 mph NNW7.4 kmh NNW 9.2 mph14.8 kmh 30.27 in1025.1 mb - 0.00 in0.0 mm 0.00 in0.0 mm
09:10 AM 33.5°F0.8°C 30.9°F-0.6°C 90% 1.2 mph N1.9 kmh N 3.5 mph5.6 kmh 30.27 in1025.1 mb - 0.00 in0.0 mm 0.00 in0.0 mm
09:20 AM 33.7°F0.9°C 31.1°F-0.5°C 90% 5.8 mph NNW9.3 kmh NNW 5.8 mph9.3 kmh 30.28 in1025.4 mb - 0.00 in0.0 mm 0.00 in0.0 mm
09:30 AM 34.1°F1.2°C 31.5°F-0.3°C 90% 1.2 mph N1.9 kmh N 6.9 mph11.1 kmh 30.27 in1025.1 mb - 0.00 in0.0 mm 0.00 in0.0 mm
09:40 AM 34.4°F1.3°C 31.8°F-0.1°C 90% 1.2 mph N1.9 kmh N 1.2 mph1.9 kmh 30.28 in1025.4 mb - 0.00 in0.0 mm 0.00 in0.0 mm
09:50 AM 35.1°F1.7°C 32.5°F0.3°C 90% 2.3 mph N3.7 kmh N 11.5 mph18.5 kmh 30.28 in1025.4 mb - 0.00 in0.0 mm 0.00 in0.0 mm
10:00 AM 36.5°F2.5°C 33.6°F0.9°C 89% 3.5 mph NNE5.6 kmh NNE 11.5 mph18.5 kmh 30.29 in1025.7 mb - 0.00 in0.0 mm 0.00 in0.0 mm
10:10 AM 37.2°F2.9°C 33.7°F0.9°C 87% 6.9 mph NNE11.1 kmh NNE 12.7 mph20.4 kmh 30.29 in1025.7 mb - 0.00 in0.0 mm 0.00 in0.0 mm
10:20 AM 38.2°F3.4°C 34.4°F1.3°C 86% 4.6 mph NNE7.4 kmh NNE 12.7 mph20.4 kmh 30.29 in1025.7 mb - 0.00 in0.0 mm 0.00 in0.0 mm
10:30 AM 38.7°F3.7°C 34.3°F1.3°C 84% 3.5 mph NNE5.6 kmh NNE 13.8 mph22.2 kmh 30.29 in1025.7 mb - 0.00 in0.0 mm 0.00 in0.0 mm
10:40 AM 39.3°F4.1°C 34.9°F1.6°C 84% 3.5 mph NNE5.6 kmh NNE 11.5 mph18.5 kmh 30.29 in1025.7 mb - 0.00 in0.0 mm 0.00 in0.0 mm
10:50 AM 39.9°F4.4°C 34.8°F1.6°C 82% 5.8 mph NNE9.3 kmh NNE 11.5 mph18.5 kmh 30.29 in1025.7 mb - 0.00 in0.0 mm 0.00 in0.0 mm
11:00 AM 39.8°F4.3°C 34.8°F1.6°C 82% 3.5 mph NE5.6 kmh NE 13.8 mph22.2 kmh 30.28 in1025.4 mb - 0.00 in0.0 mm 0.00 in0.0 mm
11:10 AM 39.7°F4.3°C 34.4°F1.3°C 81% 8.1 mph NE13.0 kmh NE 12.7 mph20.4 kmh 30.28 in1025.4 mb - 0.00 in0.0 mm 0.00 in0.0 mm
11:20 AM 39.7°F4.3°C 34.3°F1.3°C 81% 1.2 mph NE1.9 kmh NE 6.9 mph11.1 kmh 30.28 in1025.4 mb - 0.00 in0.0 mm 0.00 in0.0 mm
11:30 AM 39.9°F4.4°C 34.5°F1.4°C 81% 4.6 mph NNE7.4 kmh NNE 11.5 mph18.5 kmh 30.28 in1025.4 mb - 0.00 in0.0 mm 0.00 in0.0 mm
11:40 AM 40.0°F4.4°C 34.6°F1.4°C 81% 6.9 mph NNE11.1 kmh NNE 12.7 mph20.4 kmh 30.29 in1025.7 mb - 0.00 in0.0 mm 0.00 in0.0 mm
11:50 AM 40.3°F4.6°C 34.6°F1.4°C 80% 5.8 mph NNE9.3 kmh NNE 15.0 mph24.1 kmh 30.28 in1025.4 mb - 0.00 in0.0 mm 0.00 in0.0 mm
12:00 PM 40.7°F4.8°C 34.7°F1.5°C 79% 5.8 mph NNE9.3 kmh NNE 12.7 mph20.4 kmh 30.28 in1025.4 mb - 0.00 in0.0 mm 0.00 in0.0 mm
12:10 PM 40.3°F4.6°C 34.3°F1.3°C 79% 5.8 mph NNE9.3 kmh NNE 11.5 mph18.5 kmh 30.28 in1025.4 mb - 0.00 in0.0 mm 0.00 in0.0 mm
12:20 PM 39.8°F4.3°C 33.8°F1.0°C 79% 5.8 mph NE9.3 kmh NE 12.7 mph20.4 kmh 30.28 in1025.4 mb - 0.00 in0.0 mm 0.00 in0.0 mm
12:30 PM 40.3°F4.6°C 34.3°F1.3°C 79% 8.1 mph NNE13.0 kmh NNE 15.0 mph24.1 kmh 30.27 in1025.1 mb - 0.00 in0.0 mm 0.00 in0.0 mm
12:40 PM 41.0°F5.0°C 34.3°F1.3°C 77% 6.9 mph NNE11.1 kmh NNE 11.5 mph18.5 kmh 30.27 in1025.1 mb - 0.00 in0.0 mm 0.00 in0.0 mm
12:50 PM 41.0°F5.0°C 34.4°F1.3°C 77% 8.1 mph NNE13.0 kmh NNE 11.5 mph18.5 kmh 30.27 in1025.1 mb - 0.00 in0.0 mm 0.00 in0.0 mm
01:00 PM 40.9°F4.9°C 33.9°F1.1°C 76% 6.9 mph NNE11.1 kmh NNE 10.4 mph16.7 kmh 30.26 in1024.7 mb - 0.00 in0.0 mm 0.00 in0.0 mm
01:10 PM 41.2°F5.1°C 34.2°F1.2°C 76% 9.2 mph NNE14.8 kmh NNE 10.4 mph16.7 kmh 30.26 in1024.7 mb - 0.00 in0.0 mm 0.00 in0.0 mm
01:20 PM 41.3°F5.2°C 34.0°F1.1°C 75% 6.9 mph N11.1 kmh N 10.4 mph16.7 kmh 30.26 in1024.7 mb - 0.00 in0.0 mm 0.00 in0.0 mm
01:30 PM 40.9°F4.9°C 33.6°F0.9°C 75% 8.1 mph NNE13.0 kmh NNE 18.4 mph29.6 kmh 30.25 in1024.4 mb - 0.00 in0.0 mm 0.00 in0.0 mm
01:40 PM 40.8°F4.9°C 33.8°F1.0°C 76% 9.2 mph NNE14.8 kmh NNE 18.4 mph29.6 kmh 30.25 in1024.4 mb - 0.00 in0.0 mm 0.00 in0.0 mm
01:50 PM 40.7°F4.8°C 33.8°F1.0°C 76% 6.9 mph NNE11.1 kmh NNE 19.6 mph31.5 kmh 30.25 in1024.4 mb - 0.00 in0.0 mm 0.00 in0.0 mm
02:00 PM 40.8°F4.9°C 33.5°F0.8°C 75% 6.9 mph NNE11.1 kmh NNE 11.5 mph18.5 kmh 30.25 in1024.4 mb - 0.00 in0.0 mm 0.00 in0.0 mm
02:10 PM 40.8°F4.9°C 33.5°F0.8°C 75% 3.5 mph NE5.6 kmh NE 11.5 mph18.5 kmh 30.25 in1024.4 mb - 0.00 in0.0 mm 0.00 in0.0 mm
02:20 PM 40.8°F4.9°C 33.5°F0.8°C 75% 4.6 mph NNE7.4 kmh NNE 9.2 mph14.8 kmh 30.25 in1024.4 mb - 0.00 in0.0 mm 0.00 in0.0 mm
02:30 PM 40.6°F4.8°C 33.0°F0.6°C 74% 8.1 mph NNE13.0 kmh NNE 12.7 mph20.4 kmh 30.25 in1024.4 mb - 0.00 in0.0 mm 0.00 in0.0 mm
02:40 PM 40.6°F4.8°C 32.9°F0.5°C 74% 8.1 mph NNE13.0 kmh NNE 11.5 mph18.5 kmh 30.25 in1024.4 mb - 0.00 in0.0 mm 0.00 in0.0 mm
02:50 PM 40.5°F4.7°C 32.9°F0.5°C 74% 5.8 mph N9.3 kmh N 11.5 mph18.5 kmh 30.25 in1024.4 mb - 0.00 in0.0 mm 0.00 in0.0 mm
03:00 PM 40.3°F4.6°C 32.7°F0.4°C 74% 6.9 mph NNE11.1 kmh NNE 11.5 mph18.5 kmh 30.25 in1024.4 mb - 0.00 in0.0 mm 0.00 in0.0 mm
03:10 PM 40.2°F4.6°C 32.6°F0.3°C 74% 3.5 mph NE5.6 kmh NE 10.4 mph16.7 kmh 30.25 in1024.4 mb - 0.00 in0.0 mm 0.00 in0.0 mm
03:20 PM 40.0°F4.4°C 32.4°F0.2°C 74% 10.4 mph NNE16.7 kmh NNE 16.1 mph25.9 kmh 30.25 in1024.4 mb - 0.00 in0.0 mm 0.00 in0.0 mm
03:30 PM 39.8°F4.3°C 32.5°F0.3°C 75% 6.9 mph NE11.1 kmh NE 10.4 mph16.7 kmh 30.25 in1024.4 mb - 0.00 in0.0 mm 0.00 in0.0 mm
03:40 PM 39.6°F4.2°C 32.3°F0.2°C 75% 9.2 mph NE14.8 kmh NE 12.7 mph20.4 kmh 30.25 in1024.4 mb - 0.00 in0.0 mm 0.00 in0.0 mm
03:50 PM 39.4°F4.1°C 32.1°F0.1°C 75% 5.8 mph NNE9.3 kmh NNE 18.4 mph29.6 kmh 30.25 in1024.4 mb - 0.00 in0.0 mm 0.00 in0.0 mm
04:00 PM 39.2°F4.0°C 32.3°F0.2°C 76% 5.8 mph N9.3 kmh N 13.8 mph22.2 kmh 30.25 in1024.4 mb - 0.00 in0.0 mm 0.00 in0.0 mm
04:10 PM 38.9°F3.8°C 32.3°F0.2°C 77% 3.5 mph NNE5.6 kmh NNE 8.1 mph13.0 kmh 30.26 in1024.7 mb - 0.00 in0.0 mm 0.00 in0.0 mm
04:20 PM 38.7°F3.7°C 32.2°F0.1°C 77% 5.8 mph NNE9.3 kmh NNE 11.5 mph18.5 kmh 30.26 in1024.7 mb - 0.00 in0.0 mm 0.00 in0.0 mm
04:30 PM 38.6°F3.7°C 32.0°F0.0°C 77% 8.1 mph NNE13.0 kmh NNE 11.5 mph18.5 kmh 30.26 in1024.7 mb - 0.00 in0.0 mm 0.00 in0.0 mm
04:40 PM 38.4°F3.6°C 32.1°F0.1°C 78% 3.5 mph NNE5.6 kmh NNE 11.5 mph18.5 kmh 30.26 in1024.7 mb - 0.00 in0.0 mm 0.00 in0.0 mm
04:50 PM 38.2°F3.4°C 31.9°F-0.1°C 78% 5.8 mph N9.3 kmh N 11.5 mph18.5 kmh 30.26 in1024.7 mb - 0.00 in0.0 mm 0.00 in0.0 mm
05:00 PM 38.0°F3.3°C 31.7°F-0.2°C 78% 5.8 mph N9.3 kmh N 11.5 mph18.5 kmh 30.26 in1024.7 mb - 0.00 in0.0 mm 0.00 in0.0 mm
05:10 PM 37.8°F3.2°C 31.6°F-0.2°C 78% 2.3 mph NNE3.7 kmh NNE 11.5 mph18.5 kmh 30.25 in1024.4 mb - 0.00 in0.0 mm 0.00 in0.0 mm
05:20 PM 37.6°F3.1°C 31.7°F-0.2°C 79% 5.8 mph N9.3 kmh N 11.5 mph18.5 kmh 30.25 in1024.4 mb - 0.00 in0.0 mm 0.00 in0.0 mm
05:40 PM 37.5°F3.1°C 31.3°F-0.4°C 78% 6.9 mph N11.1 kmh N 9.2 mph14.8 kmh 30.25 in1024.4 mb - 0.00 in0.0 mm 0.00 in0.0 mm
05:50 PM 37.5°F3.1°C 31.0°F-0.6°C 77% 4.6 mph NE7.4 kmh NE 10.4 mph16.7 kmh 30.25 in1024.4 mb - 0.00 in0.0 mm 0.00 in0.0 mm
06:00 PM 37.5°F3.1°C 30.6°F-0.8°C 76% 6.9 mph NNE11.1 kmh NNE 11.5 mph18.5 kmh 30.25 in1024.4 mb - 0.00 in0.0 mm 0.00 in0.0 mm
06:10 PM 37.4°F3.0°C 30.5°F-0.8°C 76% 8.1 mph NE13.0 kmh NE 11.5 mph18.5 kmh 30.25 in1024.4 mb - 0.00 in0.0 mm 0.00 in0.0 mm
06:20 PM 37.2°F2.9°C 30.3°F-0.9°C 76% 4.6 mph NNE7.4 kmh NNE 12.7 mph20.4 kmh 30.25 in1024.4 mb - 0.00 in0.0 mm 0.00 in0.0 mm
06:30 PM 37.0°F2.8°C 30.1°F-1.1°C 76% 4.6 mph NNE7.4 kmh NNE 9.2 mph14.8 kmh 30.25 in1024.4 mb - 0.00 in0.0 mm 0.00 in0.0 mm
06:40 PM 36.9°F2.7°C 30.0°F-1.1°C 76% 4.6 mph NE7.4 kmh NE 9.2 mph14.8 kmh 30.25 in1024.4 mb - 0.00 in0.0 mm 0.00 in0.0 mm
06:50 PM 36.7°F2.6°C 29.8°F-1.2°C 76% 5.8 mph NE9.3 kmh NE 12.7 mph20.4 kmh 30.25 in1024.4 mb - 0.00 in0.0 mm 0.00 in0.0 mm
07:00 PM 36.6°F2.6°C 29.7°F-1.3°C 76% 3.5 mph NNE5.6 kmh NNE 11.5 mph18.5 kmh 30.25 in1024.4 mb - 0.00 in0.0 mm 0.00 in0.0 mm
07:10 PM 36.5°F2.5°C 29.7°F-1.3°C 76% 5.8 mph NNE9.3 kmh NNE 11.5 mph18.5 kmh 30.25 in1024.4 mb - 0.00 in0.0 mm 0.00 in0.0 mm
07:20 PM 36.3°F2.4°C 29.5°F-1.4°C 76% 5.8 mph NE9.3 kmh NE 8.1 mph13.0 kmh 30.25 in1024.4 mb - 0.00 in0.0 mm 0.00 in0.0 mm
07:30 PM 36.1°F2.3°C 29.3°F-1.5°C 76% 4.6 mph NNE7.4 kmh NNE 12.7 mph20.4 kmh 30.26 in1024.7 mb - 0.00 in0.0 mm 0.00 in0.0 mm
07:40 PM 36.0°F2.2°C 29.2°F-1.6°C 76% 3.5 mph NE5.6 kmh NE 5.8 mph9.3 kmh 30.26 in1024.7 mb - 0.00 in0.0 mm 0.00 in0.0 mm
07:50 PM 35.9°F2.2°C 28.7°F-1.8°C 75% 4.6 mph NE7.4 kmh NE 8.1 mph13.0 kmh 30.25 in1024.4 mb - 0.00 in0.0 mm 0.00 in0.0 mm
08:00 PM 35.8°F2.1°C 28.6°F-1.9°C 75% 3.5 mph NE5.6 kmh NE 8.1 mph13.0 kmh 30.25 in1024.4 mb - 0.00 in0.0 mm 0.00 in0.0 mm
08:10 PM 35.7°F2.1°C 28.6°F-1.9°C 75% 6.9 mph NNE11.1 kmh NNE 11.5 mph18.5 kmh 30.25 in1024.4 mb - 0.00 in0.0 mm 0.00 in0.0 mm
08:20 PM 35.7°F2.1°C 28.6°F-1.9°C 75% 4.6 mph NNE7.4 kmh NNE 8.1 mph13.0 kmh 30.25 in1024.4 mb - 0.00 in0.0 mm 0.00 in0.0 mm
08:30 PM 35.5°F1.9°C 28.4°F-2.0°C 75% 3.5 mph NNE5.6 kmh NNE 8.1 mph13.0 kmh 30.25 in1024.4 mb - 0.00 in0.0 mm 0.00 in0.0 mm
08:40 PM 35.4°F1.9°C 28.6°F-1.9°C 76% 2.3 mph NNE3.7 kmh NNE 5.8 mph9.3 kmh 30.25 in1024.4 mb - 0.00 in0.0 mm 0.00 in0.0 mm
08:50 PM 35.3°F1.8°C 28.2°F-2.1°C 75% 4.6 mph NNE7.4 kmh NNE 10.4 mph16.7 kmh 30.25 in1024.4 mb - 0.00 in0.0 mm 0.00 in0.0 mm
09:00 PM 35.2°F1.8°C 28.4°F-2.0°C 76% 4.6 mph NNE7.4 kmh NNE 9.2 mph14.8 kmh 30.25 in1024.4 mb - 0.00 in0.0 mm 0.00 in0.0 mm
09:10 PM 35.1°F1.7°C 28.3°F-2.1°C 76% 4.6 mph NNE7.4 kmh NNE 10.4 mph16.7 kmh 30.25 in1024.4 mb - 0.00 in0.0 mm 0.00 in0.0 mm
09:20 PM 35.0°F1.7°C 28.5°F-1.9°C 77% 3.5 mph NE5.6 kmh NE 8.1 mph13.0 kmh 30.25 in1024.4 mb - 0.00 in0.0 mm 0.00 in0.0 mm
09:30 PM 34.9°F1.6°C 28.4°F-2.0°C 77% 5.8 mph NE9.3 kmh NE 6.9 mph11.1 kmh 30.25 in1024.4 mb - 0.00 in0.0 mm 0.00 in0.0 mm
09:40 PM 34.9°F1.6°C 28.4°F-2.0°C 77% 5.8 mph NNE9.3 kmh NNE 9.2 mph14.8 kmh 30.25 in1024.4 mb - 0.00 in0.0 mm 0.00 in0.0 mm
09:50 PM 34.8°F1.6°C 28.6°F-1.9°C 78% 4.6 mph NE7.4 kmh NE 12.7 mph20.4 kmh 30.25 in1024.4 mb - 0.00 in0.0 mm 0.00 in0.0 mm
10:00 PM 34.8°F1.6°C 28.6°F-1.9°C 78% 2.3 mph NNE3.7 kmh NNE 8.1 mph13.0 kmh 30.25 in1024.4 mb - 0.00 in0.0 mm 0.00 in0.0 mm
10:10 PM 34.7°F1.5°C 28.5°F-1.9°C 78% 3.5 mph NE5.6 kmh NE 6.9 mph11.1 kmh 30.25 in1024.4 mb - 0.00 in0.0 mm 0.00 in0.0 mm
10:20 PM 34.6°F1.4°C 28.8°F-1.8°C 79% 4.6 mph NE7.4 kmh NE 9.2 mph14.8 kmh 30.25 in1024.4 mb - 0.00 in0.0 mm 0.00 in0.0 mm
10:30 PM 34.7°F1.5°C 28.9°F-1.7°C 79% 4.6 mph NNE7.4 kmh NNE 11.5 mph18.5 kmh 30.24 in1024.0 mb - 0.00 in0.0 mm 0.00 in0.0 mm
10:40 PM 34.6°F1.4°C 28.8°F-1.8°C 79% 2.3 mph NE3.7 kmh NE 6.9 mph11.1 kmh 30.24 in1024.0 mb - 0.00 in0.0 mm 0.00 in0.0 mm
10:50 PM 34.6°F1.4°C 29.0°F-1.7°C 80% 4.6 mph NE7.4 kmh NE 8.1 mph13.0 kmh 30.24 in1024.0 mb - 0.00 in0.0 mm 0.00 in0.0 mm
11:00 PM 34.5°F1.4°C 29.0°F-1.7°C 80% 2.3 mph NE3.7 kmh NE 4.6 mph7.4 kmh 30.24 in1024.0 mb - 0.00 in0.0 mm 0.00 in0.0 mm
11:10 PM 34.4°F1.3°C 28.9°F-1.7°C 80% 4.6 mph NE7.4 kmh NE 11.5 mph18.5 kmh 30.24 in1024.0 mb - 0.00 in0.0 mm 0.00 in0.0 mm
11:20 PM 34.3°F1.3°C 29.1°F-1.6°C 81% 2.3 mph NNE3.7 kmh NNE 4.6 mph7.4 kmh 30.24 in1024.0 mb - 0.00 in0.0 mm 0.00 in0.0 mm
11:30 PM 34.2°F1.2°C 29.0°F-1.7°C 81% 3.5 mph NNE5.6 kmh NNE 5.8 mph9.3 kmh 30.23 in1023.7 mb - 0.00 in0.0 mm 0.00 in0.0 mm
11:40 PM 34.2°F1.2°C 29.3°F-1.5°C 82% 3.5 mph NNE5.6 kmh NNE 10.4 mph16.7 kmh 30.23 in1023.7 mb - 0.00 in0.0 mm 0.00 in0.0 mm
11:50 PM 34.1°F1.2°C 29.2°F-1.6°C 82% 3.5 mph NE5.6 kmh NE 4.6 mph7.4 kmh 30.23 in1023.7 mb - 0.00 in0.0 mm 0.00 in0.0 mm